sensor_id;sensor_type;location;lat;lon;timestamp;temperature;humidity
13405;DHT22;6773;51.192;7.024;2023-01-31T00:00:06;3.80;99.90
13405;DHT22;6773;51.192;7.024;2023-01-31T00:02:34;3.80;99.90
13405;DHT22;6773;51.192;7.024;2023-01-31T00:05:00;3.80;99.90
13405;DHT22;6773;51.192;7.024;2023-01-31T00:07:26;3.80;99.90
13405;DHT22;6773;51.192;7.024;2023-01-31T00:09:51;3.90;99.90
13405;DHT22;6773;51.192;7.024;2023-01-31T00:12:17;3.90;99.90
13405;DHT22;6773;51.192;7.024;2023-01-31T00:17:08;3.90;99.90
13405;DHT22;6773;51.192;7.024;2023-01-31T00:19:34;3.90;99.90
13405;DHT22;6773;51.192;7.024;2023-01-31T00:22:00;3.90;99.90
13405;DHT22;6773;51.192;7.024;2023-01-31T00:24:25;3.90;99.90
13405;DHT22;6773;51.192;7.024;2023-01-31T00:26:51;3.90;99.90
13405;DHT22;6773;51.192;7.024;2023-01-31T00:29:21;3.90;99.90
13405;DHT22;6773;51.192;7.024;2023-01-31T00:31:48;3.80;99.90
13405;DHT22;6773;51.192;7.024;2023-01-31T00:36:40;3.90;99.90
13405;DHT22;6773;51.192;7.024;2023-01-31T00:39:07;4.00;99.90
13405;DHT22;6773;51.192;7.024;2023-01-31T00:41:34;3.90;99.90
13405;DHT22;6773;51.192;7.024;2023-01-31T00:44:00;3.90;99.90
13405;DHT22;6773;51.192;7.024;2023-01-31T00:46:27;3.80;99.90
13405;DHT22;6773;51.192;7.024;2023-01-31T00:48:53;3.90;99.90
13405;DHT22;6773;51.192;7.024;2023-01-31T00:51:21;3.90;99.90
13405;DHT22;6773;51.192;7.024;2023-01-31T00:53:48;3.80;99.90
13405;DHT22;6773;51.192;7.024;2023-01-31T00:56:21;3.80;99.90
13405;DHT22;6773;51.192;7.024;2023-01-31T00:58:48;3.80;99.90
13405;DHT22;6773;51.192;7.024;2023-01-31T01:01:15;3.70;99.90
13405;DHT22;6773;51.192;7.024;2023-01-31T01:03:42;5.30;99.90
13405;DHT22;6773;51.192;7.024;2023-01-31T01:06:09;3.80;99.90
13405;DHT22;6773;51.192;7.024;2023-01-31T01:08:36;3.80;99.90
13405;DHT22;6773;51.192;7.024;2023-01-31T01:13:36;3.70;99.90
13405;DHT22;6773;51.192;7.024;2023-01-31T01:16:10;3.70;99.90
13405;DHT22;6773;51.192;7.024;2023-01-31T01:18:36;3.70;99.90
13405;DHT22;6773;51.192;7.024;2023-01-31T01:23:31;3.70;99.90
13405;DHT22;6773;51.192;7.024;2023-01-31T01:25:57;3.60;99.90
13405;DHT22;6773;51.192;7.024;2023-01-31T01:30:48;3.60;99.90
13405;DHT22;6773;51.192;7.024;2023-01-31T01:33:14;3.60;99.90
13405;DHT22;6773;51.192;7.024;2023-01-31T01:35:39;3.60;99.90
13405;DHT22;6773;51.192;7.024;2023-01-31T01:40:37;3.60;99.90
13405;DHT22;6773;51.192;7.024;2023-01-31T01:47:59;3.60;99.90
13405;DHT22;6773;51.192;7.024;2023-01-31T01:50:41;3.60;99.90
13405;DHT22;6773;51.192;7.024;2023-01-31T01:53:13;3.60;99.90
13405;DHT22;6773;51.192;7.024;2023-01-31T01:56:04;3.60;99.90
13405;DHT22;6773;51.192;7.024;2023-01-31T01:58:44;3.60;99.90
13405;DHT22;6773;51.192;7.024;2023-01-31T02:01:12;3.70;99.90
13405;DHT22;6773;51.192;7.024;2023-01-31T02:03:42;3.60;99.90
13405;DHT22;6773;51.192;7.024;2023-01-31T02:08:37;3.60;99.90
13405;DHT22;6773;51.192;7.024;2023-01-31T02:11:15;3.60;99.90
13405;DHT22;6773;51.192;7.024;2023-01-31T02:13:45;3.50;99.90
13405;DHT22;6773;51.192;7.024;2023-01-31T02:16:10;3.60;99.90
13405;DHT22;6773;51.192;7.024;2023-01-31T02:18:36;3.50;99.90
13405;DHT22;6773;51.192;7.024;2023-01-31T02:46:15;3.60;99.90
13405;DHT22;6773;51.192;7.024;2023-01-31T02:50:59;3.60;99.90
13405;DHT22;6773;51.192;7.024;2023-01-31T02:53:44;3.60;99.90
13405;DHT22;6773;51.192;7.024;2023-01-31T02:56:31;3.50;99.90
13405;DHT22;6773;51.192;7.024;2023-01-31T03:01:27;3.60;99.90
13405;DHT22;6773;51.192;7.024;2023-01-31T03:04:08;3.60;99.90
13405;DHT22;6773;51.192;7.024;2023-01-31T03:11:49;3.50;99.90
13405;DHT22;6773;51.192;7.024;2023-01-31T03:14:29;3.50;99.90
13405;DHT22;6773;51.192;7.024;2023-01-31T03:22:33;3.50;99.90
13405;DHT22;6773;51.192;7.024;2023-01-31T03:25:01;3.60;99.90
13405;DHT22;6773;51.192;7.024;2023-01-31T03:27:30;3.50;99.90
13405;DHT22;6773;51.192;7.024;2023-01-31T03:29:59;3.50;99.90
13405;DHT22;6773;51.192;7.024;2023-01-31T03:32:31;3.60;99.90
13405;DHT22;6773;51.192;7.024;2023-01-31T03:34:57;3.50;99.90
13405;DHT22;6773;51.192;7.024;2023-01-31T03:40:34;3.60;99.90
13405;DHT22;6773;51.192;7.024;2023-01-31T03:43:23;3.60;99.90
13405;DHT22;6773;51.192;7.024;2023-01-31T03:45:59;3.50;99.90
13405;DHT22;6773;51.192;7.024;2023-01-31T03:48:30;3.50;99.90
13405;DHT22;6773;51.192;7.024;2023-01-31T03:50:58;3.50;99.90
13405;DHT22;6773;51.192;7.024;2023-01-31T03:53:31;3.50;99.90
13405;DHT22;6773;51.192;7.024;2023-01-31T03:56:03;3.40;99.90
13405;DHT22;6773;51.192;7.024;2023-01-31T03:58:35;3.40;99.90
13405;DHT22;6773;51.192;7.024;2023-01-31T04:01:06;3.30;99.90
13405;DHT22;6773;51.192;7.024;2023-01-31T04:03:46;3.30;99.90
13405;DHT22;6773;51.192;7.024;2023-01-31T04:06:12;3.30;99.90
13405;DHT22;6773;51.192;7.024;2023-01-31T04:11:07;3.20;99.90
13405;DHT22;6773;51.192;7.024;2023-01-31T04:13:33;3.10;99.90
13405;DHT22;6773;51.192;7.024;2023-01-31T04:15:59;3.10;99.90
13405;DHT22;6773;51.192;7.024;2023-01-31T04:18:25;3.10;99.90
13405;DHT22;6773;51.192;7.024;2023-01-31T04:20:50;3.10;99.90
13405;DHT22;6773;51.192;7.024;2023-01-31T04:25:43;3.10;99.90
13405;DHT22;6773;51.192;7.024;2023-01-31T04:28:09;3.00;99.90
13405;DHT22;6773;51.192;7.024;2023-01-31T04:30:35;2.90;99.90
13405;DHT22;6773;51.192;7.024;2023-01-31T04:33:00;2.90;99.90
13405;DHT22;6773;51.192;7.024;2023-01-31T04:35:26;2.80;99.90
13405;DHT22;6773;51.192;7.024;2023-01-31T04:37:51;2.90;99.90
13405;DHT22;6773;51.192;7.024;2023-01-31T04:40:17;2.90;99.90
13405;DHT22;6773;51.192;7.024;2023-01-31T04:42:43;2.90;99.90
13405;DHT22;6773;51.192;7.024;2023-01-31T04:45:09;2.80;99.90
13405;DHT22;6773;51.192;7.024;2023-01-31T04:50:01;2.80;99.90
13405;DHT22;6773;51.192;7.024;2023-01-31T04:52:26;2.80;99.90
13405;DHT22;6773;51.192;7.024;2023-01-31T04:54:52;2.80;99.90
13405;DHT22;6773;51.192;7.024;2023-01-31T04:59:43;2.80;99.90
13405;DHT22;6773;51.192;7.024;2023-01-31T05:02:09;2.80;99.90
13405;DHT22;6773;51.192;7.024;2023-01-31T05:04:34;2.80;99.90
13405;DHT22;6773;51.192;7.024;2023-01-31T05:07:00;2.80;99.90
13405;DHT22;6773;51.192;7.024;2023-01-31T05:09:26;2.70;99.90
13405;DHT22;6773;51.192;7.024;2023-01-31T05:11:51;2.70;99.90
13405;DHT22;6773;51.192;7.024;2023-01-31T05:14:17;2.70;99.90
13405;DHT22;6773;51.192;7.024;2023-01-31T05:19:13;2.70;99.90
13405;DHT22;6773;51.192;7.024;2023-01-31T05:21:38;2.70;99.90
13405;DHT22;6773;51.192;7.024;2023-01-31T05:24:20;2.80;99.90
13405;DHT22;6773;51.192;7.024;2023-01-31T05:31:38;2.80;99.90
13405;DHT22;6773;51.192;7.024;2023-01-31T05:34:04;2.80;99.90
13405;DHT22;6773;51.192;7.024;2023-01-31T05:41:21;2.80;99.90
13405;DHT22;6773;51.192;7.024;2023-01-31T05:43:47;2.70;99.90
13405;DHT22;6773;51.192;7.024;2023-01-31T05:46:12;2.80;99.90
13405;DHT22;6773;51.192;7.024;2023-01-31T05:48:38;2.80;99.90
13405;DHT22;6773;51.192;7.024;2023-01-31T05:51:04;2.80;99.90
13405;DHT22;6773;51.192;7.024;2023-01-31T05:55:55;2.80;99.90
13405;DHT22;6773;51.192;7.024;2023-01-31T06:00:47;2.80;99.90
13405;DHT22;6773;51.192;7.024;2023-01-31T06:03:12;2.80;99.90
13405;DHT22;6773;51.192;7.024;2023-01-31T06:05:38;2.80;99.90
13405;DHT22;6773;51.192;7.024;2023-01-31T06:08:05;2.80;99.90
13405;DHT22;6773;51.192;7.024;2023-01-31T06:10:30;2.90;99.90
13405;DHT22;6773;51.192;7.024;2023-01-31T06:12:56;2.90;99.90
13405;DHT22;6773;51.192;7.024;2023-01-31T06:15:22;2.80;99.90
13405;DHT22;6773;51.192;7.024;2023-01-31T06:17:47;2.90;99.90
13405;DHT22;6773;51.192;7.024;2023-01-31T06:22:40;3.00;99.90
13405;DHT22;6773;51.192;7.024;2023-01-31T06:27:33;3.00;99.90
13405;DHT22;6773;51.192;7.024;2023-01-31T06:29:59;3.10;99.90
13405;DHT22;6773;51.192;7.024;2023-01-31T06:32:24;3.10;99.90
13405;DHT22;6773;51.192;7.024;2023-01-31T06:34:50;3.10;99.90
13405;DHT22;6773;51.192;7.024;2023-01-31T06:39:41;3.00;99.90
13405;DHT22;6773;51.192;7.024;2023-01-31T06:42:07;3.10;99.90
13405;DHT22;6773;51.192;7.024;2023-01-31T06:47:00;3.10;99.90
13405;DHT22;6773;51.192;7.024;2023-01-31T06:51:52;3.10;99.90
13405;DHT22;6773;51.192;7.024;2023-01-31T06:54:17;3.10;99.90
13405;DHT22;6773;51.192;7.024;2023-01-31T06:56:43;3.10;99.90
13405;DHT22;6773;51.192;7.024;2023-01-31T06:59:08;3.10;99.90
13405;DHT22;6773;51.192;7.024;2023-01-31T07:06:26;3.20;99.90
13405;DHT22;6773;51.192;7.024;2023-01-31T07:08:52;3.30;99.90
13405;DHT22;6773;51.192;7.024;2023-01-31T07:11:17;3.30;99.90
13405;DHT22;6773;51.192;7.024;2023-01-31T07:16:12;3.30;99.90
13405;DHT22;6773;51.192;7.024;2023-01-31T07:21:04;3.30;99.90
13405;DHT22;6773;51.192;7.024;2023-01-31T07:23:30;3.40;99.90
13405;DHT22;6773;51.192;7.024;2023-01-31T07:28:22;3.40;99.90
13405;DHT22;6773;51.192;7.024;2023-01-31T07:30:47;3.40;99.90
13405;DHT22;6773;51.192;7.024;2023-01-31T07:33:13;3.50;99.90
13405;DHT22;6773;51.192;7.024;2023-01-31T07:35:41;3.50;99.90
13405;DHT22;6773;51.192;7.024;2023-01-31T07:38:07;3.60;99.90
13405;DHT22;6773;51.192;7.024;2023-01-31T07:40:32;3.60;99.90
13405;DHT22;6773;51.192;7.024;2023-01-31T07:42:59;3.60;99.90
13405;DHT22;6773;51.192;7.024;2023-01-31T07:45:25;3.70;99.90
13405;DHT22;6773;51.192;7.024;2023-01-31T07:47:51;3.70;99.90
13405;DHT22;6773;51.192;7.024;2023-01-31T07:50:18;3.70;99.90
13405;DHT22;6773;51.192;7.024;2023-01-31T07:52:44;3.80;99.90
13405;DHT22;6773;51.192;7.024;2023-01-31T07:55:09;3.80;99.90
13405;DHT22;6773;51.192;7.024;2023-01-31T07:57:35;3.90;99.90
13405;DHT22;6773;51.192;7.024;2023-01-31T08:00:01;3.90;99.90
13405;DHT22;6773;51.192;7.024;2023-01-31T08:02:26;3.90;99.90
13405;DHT22;6773;51.192;7.024;2023-01-31T08:05:11;4.00;99.90
13405;DHT22;6773;51.192;7.024;2023-01-31T08:07:36;3.90;99.90
13405;DHT22;6773;51.192;7.024;2023-01-31T08:10:02;4.00;99.90
13405;DHT22;6773;51.192;7.024;2023-01-31T08:14:54;4.00;99.90
13405;DHT22;6773;51.192;7.024;2023-01-31T08:17:19;4.00;99.90
13405;DHT22;6773;51.192;7.024;2023-01-31T08:22:11;4.00;99.90
13405;DHT22;6773;51.192;7.024;2023-01-31T08:24:37;4.10;99.90
13405;DHT22;6773;51.192;7.024;2023-01-31T08:27:02;4.10;99.90
13405;DHT22;6773;51.192;7.024;2023-01-31T08:29:28;4.20;99.90
13405;DHT22;6773;51.192;7.024;2023-01-31T08:31:54;4.20;99.90
13405;DHT22;6773;51.192;7.024;2023-01-31T08:36:45;4.20;99.90
13405;DHT22;6773;51.192;7.024;2023-01-31T08:39:11;4.20;99.90
13405;DHT22;6773;51.192;7.024;2023-01-31T08:41:38;4.30;99.90
13405;DHT22;6773;51.192;7.024;2023-01-31T08:44:04;4.20;99.90
13405;DHT22;6773;51.192;7.024;2023-01-31T08:46:32;4.30;99.90
13405;DHT22;6773;51.192;7.024;2023-01-31T08:48:59;4.30;99.90
13405;DHT22;6773;51.192;7.024;2023-01-31T08:53:52;4.30;99.90
13405;DHT22;6773;51.192;7.024;2023-01-31T08:56:17;4.30;99.90
13405;DHT22;6773;51.192;7.024;2023-01-31T08:58:46;4.30;99.90
13405;DHT22;6773;51.192;7.024;2023-01-31T09:01:13;4.40;99.90
13405;DHT22;6773;51.192;7.024;2023-01-31T09:03:40;4.40;99.90
13405;DHT22;6773;51.192;7.024;2023-01-31T09:06:07;4.30;99.90
13405;DHT22;6773;51.192;7.024;2023-01-31T09:08:34;4.40;99.90
13405;DHT22;6773;51.192;7.024;2023-01-31T09:11:00;4.30;99.90
13405;DHT22;6773;51.192;7.024;2023-01-31T09:13:27;4.30;99.90
13405;DHT22;6773;51.192;7.024;2023-01-31T09:16:04;4.30;99.90
13405;DHT22;6773;51.192;7.024;2023-01-31T09:18:32;4.30;99.90
13405;DHT22;6773;51.192;7.024;2023-01-31T09:21:09;4.20;99.90
13405;DHT22;6773;51.192;7.024;2023-01-31T09:26:02;4.20;99.90
13405;DHT22;6773;51.192;7.024;2023-01-31T09:28:28;4.20;99.90
13405;DHT22;6773;51.192;7.024;2023-01-31T09:30:53;4.10;99.90
13405;DHT22;6773;51.192;7.024;2023-01-31T09:33:21;4.10;99.90
13405;DHT22;6773;51.192;7.024;2023-01-31T09:35:57;4.00;99.90
13405;DHT22;6773;51.192;7.024;2023-01-31T09:40:50;4.00;99.90
13405;DHT22;6773;51.192;7.024;2023-01-31T09:43:17;4.10;99.90
13405;DHT22;6773;51.192;7.024;2023-01-31T09:45:47;4.10;99.90
13405;DHT22;6773;51.192;7.024;2023-01-31T09:48:17;4.00;99.90
13405;DHT22;6773;51.192;7.024;2023-01-31T09:50:48;4.20;99.90
13405;DHT22;6773;51.192;7.024;2023-01-31T09:53:17;4.20;99.90
13405;DHT22;6773;51.192;7.024;2023-01-31T09:56:23;4.20;99.90
13405;DHT22;6773;51.192;7.024;2023-01-31T10:01:54;4.20;99.90
13405;DHT22;6773;51.192;7.024;2023-01-31T10:07:31;4.30;99.90
13405;DHT22;6773;51.192;7.024;2023-01-31T10:10:24;4.30;99.90
13405;DHT22;6773;51.192;7.024;2023-01-31T10:12:58;4.40;99.90
13405;DHT22;6773;51.192;7.024;2023-01-31T10:15:34;4.40;99.90
13405;DHT22;6773;51.192;7.024;2023-01-31T10:18:45;4.30;99.90
13405;DHT22;6773;51.192;7.024;2023-01-31T10:20:59;4.50;99.90
13405;DHT22;6773;51.192;7.024;2023-01-31T10:23:44;4.50;99.90
13405;DHT22;6773;51.192;7.024;2023-01-31T10:26:30;4.50;99.90
13405;DHT22;6773;51.192;7.024;2023-01-31T10:32:01;4.50;99.90
13405;DHT22;6773;51.192;7.024;2023-01-31T10:34:33;4.50;99.90
13405;DHT22;6773;51.192;7.024;2023-01-31T10:40:05;4.40;99.90
13405;DHT22;6773;51.192;7.024;2023-01-31T10:42:38;4.40;99.90
13405;DHT22;6773;51.192;7.024;2023-01-31T10:47:53;4.50;99.90
13405;DHT22;6773;51.192;7.024;2023-01-31T10:50:32;4.50;99.90
13405;DHT22;6773;51.192;7.024;2023-01-31T10:58:02;4.60;99.90
13405;DHT22;6773;51.192;7.024;2023-01-31T11:00:30;4.70;99.90
13405;DHT22;6773;51.192;7.024;2023-01-31T11:02:57;4.70;99.90
13405;DHT22;6773;51.192;7.024;2023-01-31T11:05:26;4.70;99.90
13405;DHT22;6773;51.192;7.024;2023-01-31T11:07:55;4.80;99.90
13405;DHT22;6773;51.192;7.024;2023-01-31T11:10:24;4.70;99.90
13405;DHT22;6773;51.192;7.024;2023-01-31T11:12:59;4.80;99.90
13405;DHT22;6773;51.192;7.024;2023-01-31T11:15:34;4.90;99.90
13405;DHT22;6773;51.192;7.024;2023-01-31T11:20:33;5.00;99.90
13405;DHT22;6773;51.192;7.024;2023-01-31T11:23:01;5.00;99.90
13405;DHT22;6773;51.192;7.024;2023-01-31T11:25:29;5.00;99.90
13405;DHT22;6773;51.192;7.024;2023-01-31T11:28:01;5.00;99.90
13405;DHT22;6773;51.192;7.024;2023-01-31T11:30:34;5.00;99.90
13405;DHT22;6773;51.192;7.024;2023-01-31T11:33:00;5.00;99.90
13405;DHT22;6773;51.192;7.024;2023-01-31T11:35:28;5.00;99.90
13405;DHT22;6773;51.192;7.024;2023-01-31T11:38:16;5.00;99.90
13405;DHT22;6773;51.192;7.024;2023-01-31T11:43:22;5.00;99.90
13405;DHT22;6773;51.192;7.024;2023-01-31T11:46:01;4.90;99.90
13405;DHT22;6773;51.192;7.024;2023-01-31T11:48:42;5.00;99.90
13405;DHT22;6773;51.192;7.024;2023-01-31T11:51:09;5.10;99.90
13405;DHT22;6773;51.192;7.024;2023-01-31T11:56:26;5.00;99.90
13405;DHT22;6773;51.192;7.024;2023-01-31T11:58:56;5.00;99.90
13405;DHT22;6773;51.192;7.024;2023-01-31T12:01:24;5.10;99.90
13405;DHT22;6773;51.192;7.024;2023-01-31T12:03:55;5.10;99.90
13405;DHT22;6773;51.192;7.024;2023-01-31T12:06:34;5.20;99.90
13405;DHT22;6773;51.192;7.024;2023-01-31T12:09:02;5.10;99.90
13405;DHT22;6773;51.192;7.024;2023-01-31T12:11:34;5.10;99.90
13405;DHT22;6773;51.192;7.024;2023-01-31T12:16:32;5.10;99.90
13405;DHT22;6773;51.192;7.024;2023-01-31T12:24:46;5.10;99.90
13405;DHT22;6773;51.192;7.024;2023-01-31T12:33:51;5.20;99.90
13405;DHT22;6773;51.192;7.024;2023-01-31T12:36:46;5.10;99.90
13405;DHT22;6773;51.192;7.024;2023-01-31T12:42:07;5.20;99.90
13405;DHT22;6773;51.192;7.024;2023-01-31T12:44:44;5.20;99.90
13405;DHT22;6773;51.192;7.024;2023-01-31T13:01:01;5.30;99.90
13405;DHT22;6773;51.192;7.024;2023-01-31T13:03:52;5.30;99.90
13405;DHT22;6773;51.192;7.024;2023-01-31T13:06:30;5.30;99.90
13405;DHT22;6773;51.192;7.024;2023-01-31T13:09:10;5.30;99.90
13405;DHT22;6773;51.192;7.024;2023-01-31T13:14:28;5.40;99.90
13405;DHT22;6773;51.192;7.024;2023-01-31T13:16:57;5.40;99.90
13405;DHT22;6773;51.192;7.024;2023-01-31T13:20:04;5.50;99.90
13405;DHT22;6773;51.192;7.024;2023-01-31T13:22:43;5.50;99.90
13405;DHT22;6773;51.192;7.024;2023-01-31T13:28:11;5.50;99.90
13405;DHT22;6773;51.192;7.024;2023-01-31T13:30:50;5.50;99.90
13405;DHT22;6773;51.192;7.024;2023-01-31T13:33:39;5.50;99.90
13405;DHT22;6773;51.192;7.024;2023-01-31T13:36:07;5.50;99.90
13405;DHT22;6773;51.192;7.024;2023-01-31T13:38:38;5.50;99.90
13405;DHT22;6773;51.192;7.024;2023-01-31T13:41:08;5.50;99.90
13405;DHT22;6773;51.192;7.024;2023-01-31T13:43:36;5.50;99.90
13405;DHT22;6773;51.192;7.024;2023-01-31T13:46:05;5.40;99.90
13405;DHT22;6773;51.192;7.024;2023-01-31T13:48:36;5.50;99.90
13405;DHT22;6773;51.192;7.024;2023-01-31T13:56:54;5.40;99.90
13405;DHT22;6773;51.192;7.024;2023-01-31T13:59:28;5.30;99.90
13405;DHT22;6773;51.192;7.024;2023-01-31T14:01:58;5.30;99.90
13405;DHT22;6773;51.192;7.024;2023-01-31T14:04:42;5.40;99.90
13405;DHT22;6773;51.192;7.024;2023-01-31T14:09:40;5.20;99.90
13405;DHT22;6773;51.192;7.024;2023-01-31T14:17:14;5.30;99.90
13405;DHT22;6773;51.192;7.024;2023-01-31T14:20:24;5.30;99.90
13405;DHT22;6773;51.192;7.024;2023-01-31T14:23:29;5.40;99.90
13405;DHT22;6773;51.192;7.024;2023-01-31T14:25:56;5.30;99.90
13405;DHT22;6773;51.192;7.024;2023-01-31T14:28:22;5.40;99.90
13405;DHT22;6773;51.192;7.024;2023-01-31T14:33:20;5.40;99.90
13405;DHT22;6773;51.192;7.024;2023-01-31T14:38:51;5.40;99.90
13405;DHT22;6773;51.192;7.024;2023-01-31T14:57:44;5.50;99.90
13405;DHT22;6773;51.192;7.024;2023-01-31T15:02:54;5.50;99.90
13405;DHT22;6773;51.192;7.024;2023-01-31T15:05:47;5.50;99.90
13405;DHT22;6773;51.192;7.024;2023-01-31T15:11:05;5.50;99.90
13405;DHT22;6773;51.192;7.024;2023-01-31T15:13:48;5.50;99.90
13405;DHT22;6773;51.192;7.024;2023-01-31T15:16:26;5.60;99.90
13405;DHT22;6773;51.192;7.024;2023-01-31T15:19:16;5.50;99.90
13405;DHT22;6773;51.192;7.024;2023-01-31T15:24:29;5.60;99.90
13405;DHT22;6773;51.192;7.024;2023-01-31T15:26:57;5.60;99.90
13405;DHT22;6773;51.192;7.024;2023-01-31T15:29:26;5.60;99.90
13405;DHT22;6773;51.192;7.024;2023-01-31T15:32:01;5.70;99.90
13405;DHT22;6773;51.192;7.024;2023-01-31T15:34:34;5.60;99.90
13405;DHT22;6773;51.192;7.024;2023-01-31T15:37:14;5.70;99.90
13405;DHT22;6773;51.192;7.024;2023-01-31T15:40:15;5.70;99.90
13405;DHT22;6773;51.192;7.024;2023-01-31T15:42:41;5.70;99.90
13405;DHT22;6773;51.192;7.024;2023-01-31T15:48:18;5.70;99.90
13405;DHT22;6773;51.192;7.024;2023-01-31T15:50:58;5.70;99.90
13405;DHT22;6773;51.192;7.024;2023-01-31T15:53:26;5.70;99.90
13405;DHT22;6773;51.192;7.024;2023-01-31T15:55:55;5.70;99.90
13405;DHT22;6773;51.192;7.024;2023-01-31T15:58:25;5.80;99.90
13405;DHT22;6773;51.192;7.024;2023-01-31T16:00:56;5.80;99.90
13405;DHT22;6773;51.192;7.024;2023-01-31T16:03:29;5.80;99.90
13405;DHT22;6773;51.192;7.024;2023-01-31T16:05:57;5.80;99.90
13405;DHT22;6773;51.192;7.024;2023-01-31T16:08:34;5.80;99.90
13405;DHT22;6773;51.192;7.024;2023-01-31T16:11:02;5.80;99.90
13405;DHT22;6773;51.192;7.024;2023-01-31T16:13:33;5.80;99.90
13405;DHT22;6773;51.192;7.024;2023-01-31T16:15:59;5.90;99.90
13405;DHT22;6773;51.192;7.024;2023-01-31T16:18:25;5.90;99.90
13405;DHT22;6773;51.192;7.024;2023-01-31T16:20:53;5.90;99.90
13405;DHT22;6773;51.192;7.024;2023-01-31T16:26:30;5.90;99.90
13405;DHT22;6773;51.192;7.024;2023-01-31T16:28:51;5.90;99.90
13405;DHT22;6773;51.192;7.024;2023-01-31T16:31:20;6.00;99.90
13405;DHT22;6773;51.192;7.024;2023-01-31T16:33:54;5.90;99.90
13405;DHT22;6773;51.192;7.024;2023-01-31T16:36:28;6.00;99.90
13405;DHT22;6773;51.192;7.024;2023-01-31T16:38:58;6.00;99.90
13405;DHT22;6773;51.192;7.024;2023-01-31T16:44:02;6.00;99.90
13405;DHT22;6773;51.192;7.024;2023-01-31T16:46:39;6.10;99.90
13405;DHT22;6773;51.192;7.024;2023-01-31T16:49:17;6.00;99.90
13405;DHT22;6773;51.192;7.024;2023-01-31T16:51:44;6.10;99.90
13405;DHT22;6773;51.192;7.024;2023-01-31T16:54:27;6.10;99.90
13405;DHT22;6773;51.192;7.024;2023-01-31T17:02:11;6.10;99.90
13405;DHT22;6773;51.192;7.024;2023-01-31T17:04:38;6.20;99.90
13405;DHT22;6773;51.192;7.024;2023-01-31T17:07:07;6.20;99.90
13405;DHT22;6773;51.192;7.024;2023-01-31T17:14:30;6.20;99.90
13405;DHT22;6773;51.192;7.024;2023-01-31T17:16:59;6.20;99.90
13405;DHT22;6773;51.192;7.024;2023-01-31T17:19:25;6.20;99.90
13405;DHT22;6773;51.192;7.024;2023-01-31T17:21:50;6.20;99.90
13405;DHT22;6773;51.192;7.024;2023-01-31T17:24:18;6.20;99.90
13405;DHT22;6773;51.192;7.024;2023-01-31T17:26:46;6.20;99.90
13405;DHT22;6773;51.192;7.024;2023-01-31T17:29:12;6.20;99.90
13405;DHT22;6773;51.192;7.024;2023-01-31T17:31:38;6.20;99.90
13405;DHT22;6773;51.192;7.024;2023-01-31T17:34:06;6.20;99.90
13405;DHT22;6773;51.192;7.024;2023-01-31T17:43:54;6.20;99.90
13405;DHT22;6773;51.192;7.024;2023-01-31T17:46:20;6.30;99.90
13405;DHT22;6773;51.192;7.024;2023-01-31T17:48:46;6.20;99.90
13405;DHT22;6773;51.192;7.024;2023-01-31T17:51:12;6.20;99.90
13405;DHT22;6773;51.192;7.024;2023-01-31T17:53:38;6.20;99.90
13405;DHT22;6773;51.192;7.024;2023-01-31T17:56:03;6.20;99.90
13405;DHT22;6773;51.192;7.024;2023-01-31T17:58:29;6.20;99.90
13405;DHT22;6773;51.192;7.024;2023-01-31T18:00:55;6.30;99.90
13405;DHT22;6773;51.192;7.024;2023-01-31T18:03:23;6.20;99.90
13405;DHT22;6773;51.192;7.024;2023-01-31T18:08:16;6.20;99.90
13405;DHT22;6773;51.192;7.024;2023-01-31T18:10:42;6.20;99.90
13405;DHT22;6773;51.192;7.024;2023-01-31T18:13:08;6.10;99.90
13405;DHT22;6773;51.192;7.024;2023-01-31T18:15:34;6.10;99.90
13405;DHT22;6773;51.192;7.024;2023-01-31T18:18:02;6.10;99.90
13405;DHT22;6773;51.192;7.024;2023-01-31T18:22:53;6.10;99.90
13405;DHT22;6773;51.192;7.024;2023-01-31T18:25:19;6.00;99.90
13405;DHT22;6773;51.192;7.024;2023-01-31T18:27:45;6.00;99.90
13405;DHT22;6773;51.192;7.024;2023-01-31T18:30:10;6.00;99.90
13405;DHT22;6773;51.192;7.024;2023-01-31T18:32:36;5.90;99.90
13405;DHT22;6773;51.192;7.024;2023-01-31T18:35:03;5.90;99.90
13405;DHT22;6773;51.192;7.024;2023-01-31T18:39:54;5.90;99.90
13405;DHT22;6773;51.192;7.024;2023-01-31T18:44:46;5.80;99.90
13405;DHT22;6773;51.192;7.024;2023-01-31T18:47:13;5.80;99.90
13405;DHT22;6773;51.192;7.024;2023-01-31T18:49:39;5.80;99.90
13405;DHT22;6773;51.192;7.024;2023-01-31T18:52:05;5.80;99.90
13405;DHT22;6773;51.192;7.024;2023-01-31T18:54:32;5.70;99.90
13405;DHT22;6773;51.192;7.024;2023-01-31T18:56:57;5.70;99.90
13405;DHT22;6773;51.192;7.024;2023-01-31T19:01:51;5.70;99.90
13405;DHT22;6773;51.192;7.024;2023-01-31T19:04:17;5.60;99.90
13405;DHT22;6773;51.192;7.024;2023-01-31T19:06:43;5.60;99.90
13405;DHT22;6773;51.192;7.024;2023-01-31T19:09:11;5.60;99.90
13405;DHT22;6773;51.192;7.024;2023-01-31T19:11:37;5.70;99.90
13405;DHT22;6773;51.192;7.024;2023-01-31T19:14:05;5.70;99.90
13405;DHT22;6773;51.192;7.024;2023-01-31T19:16:34;5.70;99.90
13405;DHT22;6773;51.192;7.024;2023-01-31T19:19:00;5.70;99.90
13405;DHT22;6773;51.192;7.024;2023-01-31T19:21:28;5.70;99.90
13405;DHT22;6773;51.192;7.024;2023-01-31T19:23:56;5.70;99.90
13405;DHT22;6773;51.192;7.024;2023-01-31T19:26:24;5.70;99.90
13405;DHT22;6773;51.192;7.024;2023-01-31T19:31:18;5.70;99.90
13405;DHT22;6773;51.192;7.024;2023-01-31T19:33:54;5.70;99.90
13405;DHT22;6773;51.192;7.024;2023-01-31T19:36:26;5.70;99.90
13405;DHT22;6773;51.192;7.024;2023-01-31T19:38:55;5.70;99.90
13405;DHT22;6773;51.192;7.024;2023-01-31T19:41:22;5.60;99.90
13405;DHT22;6773;51.192;7.024;2023-01-31T19:43:52;5.70;99.90
13405;DHT22;6773;51.192;7.024;2023-01-31T19:46:19;5.70;99.90
13405;DHT22;6773;51.192;7.024;2023-01-31T19:48:45;5.70;99.90
13405;DHT22;6773;51.192;7.024;2023-01-31T19:51:17;5.70;99.90
13405;DHT22;6773;51.192;7.024;2023-01-31T19:53:44;5.70;99.90
13405;DHT22;6773;51.192;7.024;2023-01-31T19:56:10;5.70;99.90
13405;DHT22;6773;51.192;7.024;2023-01-31T19:58:36;5.80;99.90
13405;DHT22;6773;51.192;7.024;2023-01-31T20:01:07;5.80;99.90
13405;DHT22;6773;51.192;7.024;2023-01-31T20:03:33;5.80;99.90
13405;DHT22;6773;51.192;7.024;2023-01-31T20:06:01;5.80;99.90
13405;DHT22;6773;51.192;7.024;2023-01-31T20:10:54;5.70;99.90
13405;DHT22;6773;51.192;7.024;2023-01-31T20:13:23;5.70;99.90
13405;DHT22;6773;51.192;7.024;2023-01-31T20:15:59;5.70;99.90
13405;DHT22;6773;51.192;7.024;2023-01-31T20:18:26;5.70;99.90
13405;DHT22;6773;51.192;7.024;2023-01-31T20:20:56;5.70;99.90
13405;DHT22;6773;51.192;7.024;2023-01-31T20:23:22;5.70;99.90
13405;DHT22;6773;51.192;7.024;2023-01-31T20:25:51;5.70;99.90
13405;DHT22;6773;51.192;7.024;2023-01-31T20:28:17;5.70;99.90
13405;DHT22;6773;51.192;7.024;2023-01-31T20:33:17;5.70;99.90
13405;DHT22;6773;51.192;7.024;2023-01-31T20:35:42;5.70;99.90
13405;DHT22;6773;51.192;7.024;2023-01-31T20:38:09;5.70;99.90
13405;DHT22;6773;51.192;7.024;2023-01-31T20:40:36;5.60;99.90
13405;DHT22;6773;51.192;7.024;2023-01-31T20:43:02;5.50;99.90
13405;DHT22;6773;51.192;7.024;2023-01-31T20:45:27;5.50;99.90
13405;DHT22;6773;51.192;7.024;2023-01-31T20:47:59;5.50;99.90
13405;DHT22;6773;51.192;7.024;2023-01-31T20:50:26;5.40;99.90
13405;DHT22;6773;51.192;7.024;2023-01-31T20:52:55;5.30;99.90
13405;DHT22;6773;51.192;7.024;2023-01-31T20:55:21;5.30;99.90
13405;DHT22;6773;51.192;7.024;2023-01-31T20:57:48;5.30;99.90
13405;DHT22;6773;51.192;7.024;2023-01-31T21:00:19;5.20;99.90
13405;DHT22;6773;51.192;7.024;2023-01-31T21:02:45;5.20;99.90